createdAt,value
2023-04-18T00:03:04.774Z,53.29
2023-04-18T00:06:05.303Z,53.14
2023-04-18T00:08:58.325Z,53.18
2023-04-18T00:11:58.301Z,54.50
2023-04-18T00:14:59.383Z,54.27
2023-04-18T00:18:02.509Z,55.29
2023-04-18T00:21:06.351Z,53.61
2023-04-18T00:24:06.309Z,53.25
2023-04-18T00:27:07.459Z,53.42
2023-04-18T00:30:07.361Z,53.79
2023-04-18T00:33:07.377Z,54.44
2023-04-18T00:36:08.493Z,54.91
2023-04-18T00:39:10.380Z,55.51
2023-04-18T00:42:10.461Z,55.78
2023-04-18T00:45:11.417Z,55.65
2023-04-18T00:48:14.448Z,55.55
2023-04-18T00:51:14.576Z,55.33
2023-04-18T00:54:15.787Z,54.93
2023-04-18T00:57:16.380Z,54.69
2023-04-18T01:00:19.367Z,54.30
2023-04-18T01:03:20.567Z,54.73
2023-04-18T01:06:20.412Z,54.36
2023-04-18T01:09:21.366Z,54.22
2023-04-18T01:12:21.457Z,53.78
2023-04-18T01:15:21.421Z,53.69
2023-04-18T01:18:25.481Z,53.70
2023-04-18T01:21:26.420Z,53.64
2023-04-18T01:24:30.428Z,53.85
2023-04-18T01:27:30.456Z,53.89
2023-04-18T01:30:30.434Z,53.77
2023-04-18T01:33:30.715Z,54.55
2023-04-18T01:36:30.643Z,54.07
2023-04-18T01:39:30.582Z,54.42
2023-04-18T01:42:30.476Z,54.55
2023-04-18T01:45:30.518Z,54.55
2023-04-18T01:48:30.477Z,54.54
2023-04-18T01:51:30.472Z,54.44
2023-04-18T01:54:30.571Z,55.00
2023-04-18T01:57:30.522Z,54.93
2023-04-18T02:00:30.547Z,55.12
2023-04-18T02:03:32.806Z,55.79
2023-04-18T02:06:33.500Z,56.91
2023-04-18T02:09:33.592Z,56.54
2023-04-18T02:12:33.548Z,56.35
2023-04-18T02:15:36.561Z,56.78
2023-04-18T02:18:36.545Z,57.02
2023-04-18T02:21:36.526Z,57.22
2023-04-18T02:24:38.605Z,57.49
2023-04-18T02:27:38.522Z,56.70
2023-04-18T02:30:38.639Z,56.78
2023-04-18T02:33:38.591Z,57.27
2023-04-18T02:36:38.548Z,57.87
2023-04-18T02:39:31.643Z,57.26
2023-04-18T02:42:24.583Z,57.60
2023-04-18T02:45:24.640Z,58.07
2023-04-18T02:48:25.629Z,58.61
2023-04-18T02:51:25.749Z,58.52
2023-04-18T02:54:25.566Z,58.66
2023-04-18T02:57:29.602Z,58.01
2023-04-18T03:00:42.603Z,57.65
2023-04-18T03:04:08.613Z,58.32
2023-04-18T03:07:10.614Z,57.74
2023-04-18T03:10:10.633Z,58.64
2023-04-18T03:13:11.243Z,58.92
2023-04-18T03:16:11.855Z,58.72
2023-04-18T03:19:11.683Z,57.88
2023-04-18T03:22:11.630Z,58.08
2023-04-18T03:25:17.635Z,58.48
2023-04-18T03:28:20.672Z,57.97
2023-04-18T03:31:20.661Z,57.45
2023-04-18T03:34:22.701Z,57.02
2023-04-18T03:37:22.690Z,57.12
2023-04-18T03:40:22.664Z,57.07
2023-04-18T03:43:25.680Z,57.02
2023-04-18T03:46:25.716Z,57.08
2023-04-18T03:49:26.693Z,56.95
2023-04-18T03:52:19.750Z,56.83
2023-04-18T03:55:19.704Z,56.82
2023-04-18T03:58:19.704Z,56.85
2023-04-18T04:01:20.727Z,56.78
2023-04-18T04:04:20.831Z,56.53
2023-04-18T04:07:20.725Z,56.45
2023-04-18T04:10:20.692Z,55.94
2023-04-18T04:13:20.694Z,56.10
2023-04-18T04:16:20.893Z,56.13
2023-04-18T04:19:20.759Z,55.98
2023-04-18T04:22:29.756Z,55.88
2023-04-18T04:25:31.753Z,55.85
2023-04-18T04:28:43.045Z,55.90
2023-04-18T04:31:38.752Z,55.54
2023-04-18T04:34:38.774Z,56.41
2023-04-18T04:37:39.796Z,57.57
2023-04-18T04:40:46.798Z,58.44
2023-04-18T04:43:46.763Z,58.60
2023-04-18T04:46:50.833Z,59.40
2023-04-18T04:49:55.194Z,58.92
2023-04-18T04:52:54.781Z,58.46
2023-04-18T04:55:54.828Z,58.00
2023-04-18T04:58:47.895Z,57.58
2023-04-18T05:01:50.833Z,56.27
2023-04-18T05:04:50.805Z,54.93
2023-04-18T05:07:51.905Z,54.44
2023-04-18T05:10:51.802Z,53.99
2023-04-18T05:13:52.832Z,53.90
2023-04-18T05:16:53.855Z,53.50
2023-04-18T05:19:53.878Z,53.93
2023-04-18T05:22:53.896Z,54.18
2023-04-18T05:25:53.889Z,54.13
2023-04-18T05:28:53.830Z,53.33
2023-04-18T05:31:53.902Z,51.70
2023-04-18T05:34:53.836Z,50.93
2023-04-18T05:37:53.915Z,50.43
2023-04-18T05:40:53.888Z,50.03
2023-04-18T05:44:04.692Z,50.07
2023-04-18T05:46:59.121Z,50.02
2023-04-18T05:49:59.927Z,49.61
2023-04-18T05:52:59.896Z,48.80
2023-04-18T05:56:00.901Z,48.00
2023-04-18T05:59:01.152Z,47.38
2023-04-18T06:02:00.995Z,47.41
2023-04-18T06:05:01.398Z,47.41
2023-04-18T06:08:02.010Z,47.07
2023-04-18T06:11:01.917Z,46.44
2023-04-18T06:14:02.954Z,46.34
2023-04-18T06:17:02.971Z,46.08
2023-04-18T06:20:03.004Z,45.98
2023-04-18T06:23:03.147Z,46.05
2023-04-18T06:26:03.100Z,46.03
2023-04-18T06:29:03.014Z,46.34
2023-04-18T06:32:04.060Z,46.32
2023-04-18T06:35:04.011Z,46.23
2023-04-18T06:38:04.998Z,46.22
2023-04-18T06:41:05.052Z,45.79
2023-04-18T06:44:05.995Z,45.77
2023-04-18T06:47:06.031Z,45.60
2023-04-18T06:50:05.998Z,45.81
2023-04-18T06:53:06.075Z,45.81
2023-04-18T06:56:06.037Z,45.81
2023-04-18T06:59:06.004Z,45.57
2023-04-18T07:02:06.169Z,45.67
2023-04-18T07:05:06.059Z,45.92
2023-04-18T07:08:06.303Z,45.78
2023-04-18T07:11:00.053Z,45.97
2023-04-18T07:13:48.041Z,46.34
2023-04-18T07:16:42.206Z,46.65
2023-04-18T07:19:42.148Z,46.76
2023-04-18T07:22:42.092Z,46.11
2023-04-18T07:25:42.144Z,46.10
2023-04-18T07:28:42.120Z,46.26
2023-04-18T07:31:42.167Z,45.84
2023-04-18T07:34:43.115Z,45.67
2023-04-18T07:37:44.097Z,45.16
2023-04-18T07:40:44.150Z,44.73
2023-04-18T07:43:46.118Z,44.56
2023-04-18T07:46:46.429Z,44.44
2023-04-18T07:49:46.214Z,44.18
2023-04-18T07:52:54.270Z,44.26
2023-04-18T07:55:56.141Z,44.57
2023-04-18T07:58:58.177Z,44.05
2023-04-18T08:02:09.430Z,43.70
2023-04-18T08:05:17.544Z,43.46
2023-04-18T08:08:18.145Z,43.66
2023-04-18T08:11:23.946Z,43.67
2023-04-18T08:14:25.236Z,43.94
2023-04-18T08:17:26.223Z,44.17
2023-04-18T08:20:28.164Z,44.60
2023-04-18T08:23:28.171Z,44.43
2023-04-18T08:26:28.182Z,44.34
2023-04-18T08:29:28.163Z,44.31
2023-04-18T08:32:28.192Z,44.63
2023-04-18T08:35:28.221Z,44.61
2023-04-18T08:38:28.203Z,44.68
2023-04-18T08:41:29.250Z,44.23
2023-04-18T08:44:29.355Z,43.44
2023-04-18T08:47:29.331Z,42.94
2023-04-18T08:50:29.243Z,42.58
2023-04-18T08:53:29.292Z,42.09
2023-04-18T08:56:33.195Z,41.83
2023-04-18T08:59:33.296Z,41.32
2023-04-18T09:02:34.428Z,41.08
2023-04-18T09:05:34.292Z,41.01
2023-04-18T09:08:34.299Z,41.29
2023-04-18T09:11:34.218Z,42.07
2023-04-18T09:14:23.316Z,42.05
2023-04-18T09:17:26.233Z,41.84
2023-04-18T09:20:19.293Z,42.08
2023-04-18T09:23:25.264Z,42.24
2023-04-18T09:26:26.326Z,42.03
2023-04-18T09:29:29.319Z,41.31
2023-04-18T09:32:32.354Z,40.52
2023-04-18T09:35:32.270Z,40.74
2023-04-18T09:38:32.351Z,39.98
2023-04-18T09:41:33.306Z,39.39
2023-04-18T09:44:33.270Z,38.99
2023-04-18T09:47:33.459Z,38.44
2023-04-18T09:50:33.374Z,38.67
2023-04-18T09:53:33.341Z,38.10
2023-04-18T09:56:35.384Z,37.05
2023-04-18T09:59:55.438Z,37.25
2023-04-18T10:03:11.503Z,35.84
2023-04-18T10:06:11.346Z,35.11
2023-04-18T10:09:13.506Z,34.45
2023-04-18T10:12:14.384Z,34.75
2023-04-18T10:15:14.416Z,35.40
2023-04-18T10:18:15.459Z,36.05
2023-04-18T10:21:15.428Z,36.41
2023-04-18T10:24:15.573Z,36.55
2023-04-18T10:27:15.374Z,36.73
2023-04-18T10:30:15.396Z,36.88
2023-04-18T10:33:32.903Z,37.29
2023-04-18T10:36:34.719Z,36.67
2023-04-18T10:39:35.393Z,37.00
2023-04-18T10:42:54.391Z,36.85
2023-04-18T10:45:55.433Z,37.19
2023-04-18T10:48:55.507Z,37.76
2023-04-18T10:51:55.496Z,38.25
2023-04-18T10:55:11.408Z,38.32
2023-04-18T10:58:11.704Z,38.11
2023-04-18T11:01:05.578Z,38.40
2023-04-18T11:04:07.782Z,38.46
2023-04-18T11:07:07.482Z,38.71
2023-04-18T11:10:08.627Z,39.12
2023-04-18T11:13:11.496Z,39.66
2023-04-18T11:16:11.757Z,40.17
2023-04-18T11:19:11.486Z,40.61
2023-04-18T11:22:12.518Z,41.31
2023-04-18T11:25:13.507Z,42.03
2023-04-18T11:28:13.630Z,42.45
2023-04-18T11:31:16.516Z,42.88
2023-04-18T11:34:16.560Z,43.11
2023-04-18T11:37:18.521Z,43.66
2023-04-18T11:40:19.577Z,43.97
2023-04-18T11:43:19.506Z,44.70
2023-04-18T11:46:22.714Z,44.73
2023-04-18T11:49:36.543Z,44.89
2023-04-18T11:52:36.546Z,45.41
2023-04-18T11:55:36.568Z,45.95
2023-04-18T11:58:42.628Z,46.93
2023-04-18T12:01:35.702Z,47.53
2023-04-18T12:04:35.766Z,48.57
2023-04-18T12:07:42.605Z,48.30
2023-04-18T12:10:42.610Z,49.17
2023-04-18T12:13:47.613Z,49.60
2023-04-18T12:16:47.778Z,50.50
2023-04-18T12:19:51.821Z,52.11
2023-04-18T12:23:01.760Z,54.17
2023-04-18T12:26:01.628Z,55.21
2023-04-18T12:29:02.626Z,58.12
2023-04-18T12:32:02.648Z,59.41
2023-04-18T12:35:06.703Z,61.47
2023-04-18T12:38:06.710Z,66.00
2023-04-18T12:41:06.673Z,67.52
2023-04-18T12:44:09.720Z,71.03
2023-04-18T12:47:12.632Z,72.67
2023-04-18T12:50:18.512Z,73.99
2023-04-18T12:53:18.679Z,75.62
2023-04-18T12:56:18.659Z,78.56
2023-04-18T12:59:18.667Z,80.45
2023-04-18T13:02:18.831Z,82.27
2023-04-18T13:05:21.656Z,84.53
2023-04-18T13:08:22.718Z,86.36
2023-04-18T13:11:22.747Z,88.49
2023-04-18T13:14:22.714Z,90.14
2023-04-18T13:17:22.845Z,91.48
2023-04-18T13:20:22.729Z,93.75
2023-04-18T13:23:22.753Z,95.34
2023-04-18T13:26:25.761Z,95.78
2023-04-18T13:29:26.729Z,96.47
2023-04-18T13:32:26.707Z,98.37
2023-04-18T13:35:26.695Z,100.00
2023-04-18T13:38:26.740Z,100.00
2023-04-18T13:41:26.766Z,100.00
2023-04-18T13:44:26.738Z,100.00
2023-04-18T13:47:26.777Z,100.00
2023-04-18T13:50:26.737Z,97.65
2023-04-18T13:53:29.453Z,94.16
2023-04-18T13:56:30.817Z,93.55
2023-04-18T13:59:30.776Z,93.03
2023-04-18T14:02:31.825Z,92.90
2023-04-18T14:05:31.828Z,93.40
2023-04-18T14:08:32.804Z,93.41
2023-04-18T14:11:34.961Z,93.16
2023-04-18T14:14:34.853Z,92.61
2023-04-18T14:17:34.860Z,91.98
2023-04-18T14:20:39.832Z,91.30
2023-04-18T14:23:40.809Z,91.25
2023-04-18T14:26:40.828Z,90.78
2023-04-18T14:29:40.832Z,89.27
2023-04-18T14:32:40.829Z,88.28
2023-04-18T14:35:40.838Z,87.49
2023-04-18T14:38:40.861Z,85.94
2023-04-18T14:41:41.082Z,85.77
2023-04-18T14:44:33.878Z,85.14
2023-04-18T14:47:37.943Z,85.07
2023-04-18T14:50:37.875Z,84.23
2023-04-18T14:53:37.862Z,81.08
2023-04-18T14:56:37.873Z,78.81
2023-04-18T14:59:38.081Z,77.34
2023-04-18T15:02:42.762Z,77.00
2023-04-18T15:05:48.942Z,76.28
2023-04-18T15:08:49.950Z,74.86
2023-04-18T15:11:49.872Z,74.20
2023-04-18T15:14:49.938Z,74.05
2023-04-18T15:17:50.968Z,74.73
2023-04-18T15:20:50.936Z,74.57
2023-04-18T15:23:51.033Z,74.64
2023-04-18T15:26:51.125Z,73.35
2023-04-18T15:29:50.921Z,72.81
2023-04-18T15:32:51.945Z,71.96
2023-04-18T15:35:53.121Z,71.17
2023-04-18T15:38:52.933Z,70.58
2023-04-18T15:41:52.967Z,69.60
2023-04-18T15:44:52.998Z,69.04
2023-04-18T15:47:54.003Z,68.13
2023-04-18T15:50:54.006Z,67.28
2023-04-18T15:53:53.993Z,66.75
2023-04-18T15:56:53.988Z,66.41
2023-04-18T15:59:55.089Z,66.02
2023-04-18T16:02:55.050Z,65.61
2023-04-18T16:05:55.985Z,65.20
2023-04-18T16:08:59.012Z,65.41
2023-04-18T16:11:59.059Z,65.46
2023-04-18T16:14:59.343Z,65.52
2023-04-18T16:18:00.068Z,65.78
2023-04-18T16:21:00.076Z,65.97
2023-04-18T16:24:00.066Z,66.22
2023-04-18T16:27:01.048Z,66.40
2023-04-18T16:30:04.350Z,66.60
2023-04-18T16:33:05.251Z,66.74
2023-04-18T16:36:05.050Z,66.85
2023-04-18T16:39:07.038Z,66.92
2023-04-18T16:42:09.054Z,66.90
2023-04-18T16:45:09.328Z,67.24
2023-04-18T16:48:10.143Z,67.16
2023-04-18T16:51:10.100Z,67.15
2023-04-18T16:54:10.045Z,67.36
2023-04-18T16:57:11.337Z,67.24
2023-04-18T17:00:12.152Z,67.12
2023-04-18T17:03:05.351Z,67.15
2023-04-18T17:05:54.195Z,67.35
2023-04-18T17:08:52.772Z,67.31
2023-04-18T17:11:47.096Z,67.29
2023-04-18T17:14:47.127Z,67.20
2023-04-18T17:17:47.225Z,66.84
2023-04-18T17:20:47.123Z,66.79
2023-04-18T17:23:49.164Z,66.84
2023-04-18T17:26:51.115Z,66.80
2023-04-18T17:29:53.192Z,66.81
2023-04-18T17:32:54.125Z,66.75
2023-04-18T17:35:55.205Z,66.73
2023-04-18T17:38:55.195Z,66.82
2023-04-18T17:41:55.204Z,66.95
2023-04-18T17:44:55.167Z,67.02
2023-04-18T17:47:56.405Z,67.20
2023-04-18T17:50:58.147Z,67.31
2023-04-18T17:53:58.215Z,67.70
2023-04-18T17:56:51.254Z,67.82
2023-04-18T17:59:43.200Z,68.03
2023-04-18T18:02:43.307Z,67.99
2023-04-18T18:05:43.197Z,67.87
2023-04-18T18:08:43.244Z,67.93
2023-04-18T18:11:43.199Z,68.09
2023-04-18T18:14:43.271Z,68.14
2023-04-18T18:17:43.333Z,68.29
2023-04-18T18:20:43.299Z,68.26
2023-04-18T18:23:43.236Z,68.37
2023-04-18T18:26:43.308Z,68.50
2023-04-18T18:29:43.284Z,68.71
2023-04-18T18:32:36.335Z,68.85
2023-04-18T18:35:16.373Z,68.86
2023-04-18T18:38:03.309Z,68.87
2023-04-18T18:40:43.620Z,69.08
2023-04-18T18:43:32.329Z,68.93
2023-04-18T18:46:18.327Z,68.89
2023-04-18T18:49:18.491Z,68.96
2023-04-18T18:52:18.348Z,68.70
2023-04-18T18:55:18.382Z,68.65
2023-04-18T18:58:18.364Z,68.85
2023-04-18T19:01:11.378Z,68.93
2023-04-18T19:03:58.620Z,68.96
2023-04-18T19:06:59.333Z,68.94
2023-04-18T19:10:01.367Z,68.94
2023-04-18T19:13:02.085Z,68.86
2023-04-18T19:16:02.477Z,68.85
2023-04-18T19:19:03.396Z,68.61
2023-04-18T19:22:03.464Z,68.71
2023-04-18T19:25:03.698Z,68.25
2023-04-18T19:27:56.391Z,67.54
2023-04-18T19:30:49.355Z,66.94
2023-04-18T19:33:36.597Z,66.02
2023-04-18T19:36:38.420Z,65.50
2023-04-18T19:39:40.484Z,65.16
2023-04-18T19:42:41.401Z,64.65
2023-04-18T19:45:41.563Z,63.77
2023-04-18T19:48:41.442Z,63.19
2023-04-18T19:51:41.429Z,62.82
2023-04-18T19:54:41.524Z,62.62
2023-04-18T19:57:44.519Z,62.06
2023-04-18T20:00:44.974Z,61.96
2023-04-18T20:03:45.636Z,61.34
2023-04-18T20:06:47.461Z,61.27
2023-04-18T20:09:48.557Z,61.35
2023-04-18T20:12:50.201Z,61.87
2023-04-18T20:15:51.473Z,62.25
2023-04-18T20:18:54.985Z,62.15
2023-04-18T20:21:56.384Z,61.46
2023-04-18T20:25:00.776Z,61.42
2023-04-18T20:28:13.340Z,62.19
2023-04-18T20:31:38.668Z,63.13
2023-04-18T20:34:38.507Z,64.09
2023-04-18T20:37:42.620Z,65.89
2023-04-18T20:40:42.525Z,66.50
2023-04-18T20:43:43.674Z,66.08
2023-04-18T20:46:44.857Z,66.49
2023-04-18T20:49:44.519Z,67.85
2023-04-18T20:52:44.596Z,68.01
2023-04-18T20:55:44.508Z,67.10
2023-04-18T20:58:44.566Z,66.82
2023-04-18T21:01:44.677Z,66.63
2023-04-18T21:04:44.582Z,66.81
2023-04-18T21:07:37.749Z,67.79
2023-04-18T21:10:38.604Z,67.72
2023-04-18T21:13:40.735Z,67.28
2023-04-18T21:16:40.987Z,66.45
2023-04-18T21:19:41.645Z,66.44
2023-04-18T21:22:42.001Z,65.34
2023-04-18T21:25:36.549Z,65.30
2023-04-18T21:28:23.577Z,65.42
2023-04-18T21:31:23.587Z,64.93
2023-04-18T21:34:24.596Z,61.31
2023-04-18T21:37:24.611Z,62.91
2023-04-18T21:40:24.591Z,63.13
2023-04-18T21:43:24.774Z,63.02
2023-04-18T21:46:24.636Z,63.53
2023-04-18T21:49:24.963Z,63.76
2023-04-18T21:52:24.829Z,63.67
2023-04-18T21:55:24.632Z,62.14
2023-04-18T21:58:25.890Z,62.39
2023-04-18T22:01:26.682Z,61.28
2023-04-18T22:04:29.717Z,60.03
2023-04-18T22:07:24.041Z,60.73
2023-04-18T22:10:24.742Z,61.31
2023-04-18T22:13:24.691Z,61.33
2023-04-18T22:16:24.804Z,60.74
2023-04-18T22:19:27.739Z,61.31
2023-04-18T22:22:27.758Z,62.29
2023-04-18T22:25:28.054Z,62.35
2023-04-18T22:28:29.792Z,61.87
2023-04-18T22:31:29.788Z,60.66
2023-04-18T22:34:29.681Z,60.55
2023-04-18T22:37:29.703Z,60.32
2023-04-18T22:40:29.699Z,60.40
2023-04-18T22:43:30.718Z,60.45
2023-04-18T22:46:30.737Z,60.22
2023-04-18T22:49:31.032Z,60.16
2023-04-18T22:52:30.681Z,60.03
2023-04-18T22:55:30.731Z,59.57
2023-04-18T22:58:33.862Z,59.25
2023-04-18T23:01:34.065Z,59.69
2023-04-18T23:04:38.760Z,60.76
2023-04-18T23:07:38.735Z,60.85
2023-04-18T23:10:38.748Z,60.83
2023-04-18T23:13:39.773Z,62.00
2023-04-18T23:16:43.291Z,61.78
2023-04-18T23:19:43.830Z,62.53
2023-04-18T23:22:44.840Z,62.21
2023-04-18T23:25:44.828Z,62.03
2023-04-18T23:28:44.817Z,61.56
2023-04-18T23:31:44.809Z,62.25
2023-04-18T23:34:44.857Z,62.57
2023-04-18T23:37:44.805Z,62.89
2023-04-18T23:40:44.802Z,62.88
2023-04-18T23:43:37.813Z,61.92
2023-04-18T23:46:23.913Z,61.87
2023-04-18T23:49:23.757Z,61.59
2023-04-18T23:52:25.855Z,61.99
2023-04-18T23:55:25.897Z,62.27
2023-04-18T23:58:25.843Z,62.59
